sensor_id;sensor_type;location;lat;lon;timestamp;temperature;humidity
18648;DHT22;9453;50.294;18.644;2023-12-28T05:02:23;4.40;99.90
18648;DHT22;9453;50.294;18.644;2023-12-28T05:04:50;4.70;99.90
18648;DHT22;9453;50.294;18.644;2023-12-28T05:07:17;4.90;99.90
18648;DHT22;9453;50.294;18.644;2023-12-28T05:09:44;5.00;99.90
18648;DHT22;9453;50.294;18.644;2023-12-28T05:12:11;5.10;99.90
18648;DHT22;9453;50.294;18.644;2023-12-28T05:14:39;5.30;99.90
18648;DHT22;9453;50.294;18.644;2023-12-28T05:17:06;5.30;99.90
18648;DHT22;9453;50.294;18.644;2023-12-28T05:19:37;5.40;99.90
18648;DHT22;9453;50.294;18.644;2023-12-28T05:22:04;5.50;99.90
18648;DHT22;9453;50.294;18.644;2023-12-28T05:24:34;5.50;99.90
18648;DHT22;9453;50.294;18.644;2023-12-28T05:27:01;5.50;99.90
18648;DHT22;9453;50.294;18.644;2023-12-28T05:29:29;5.60;99.90
18648;DHT22;9453;50.294;18.644;2023-12-28T05:31:57;5.60;99.90
18648;DHT22;9453;50.294;18.644;2023-12-28T05:34:24;5.60;99.90
18648;DHT22;9453;50.294;18.644;2023-12-28T05:36:53;5.60;99.90
18648;DHT22;9453;50.294;18.644;2023-12-28T05:39:20;5.60;99.90
18648;DHT22;9453;50.294;18.644;2023-12-28T05:41:47;5.60;99.90
18648;DHT22;9453;50.294;18.644;2023-12-28T05:44:16;5.70;99.90
18648;DHT22;9453;50.294;18.644;2023-12-28T05:46:43;5.70;99.90
18648;DHT22;9453;50.294;18.644;2023-12-28T05:49:11;5.70;99.90
18648;DHT22;9453;50.294;18.644;2023-12-28T05:51:39;5.70;99.90
18648;DHT22;9453;50.294;18.644;2023-12-28T05:54:08;5.70;99.90
18648;DHT22;9453;50.294;18.644;2023-12-28T05:56:35;5.70;99.90
18648;DHT22;9453;50.294;18.644;2023-12-28T05:59:02;5.70;99.90
18648;DHT22;9453;50.294;18.644;2023-12-28T06:01:29;5.70;99.90
18648;DHT22;9453;50.294;18.644;2023-12-28T06:03:56;5.80;99.90
18648;DHT22;9453;50.294;18.644;2023-12-28T06:06:24;5.70;99.90
18648;DHT22;9453;50.294;18.644;2023-12-28T06:09:00;5.70;99.90
18648;DHT22;9453;50.294;18.644;2023-12-28T06:11:33;5.70;99.90
18648;DHT22;9453;50.294;18.644;2023-12-28T06:14:03;5.70;99.90
18648;DHT22;9453;50.294;18.644;2023-12-28T06:16:33;5.70;99.90
18648;DHT22;9453;50.294;18.644;2023-12-28T06:19:01;5.70;99.90
18648;DHT22;9453;50.294;18.644;2023-12-28T06:21:28;5.70;99.90
18648;DHT22;9453;50.294;18.644;2023-12-28T06:23:56;5.70;99.90
18648;DHT22;9453;50.294;18.644;2023-12-28T06:26:23;5.70;99.90
18648;DHT22;9453;50.294;18.644;2023-12-28T06:28:53;5.70;99.90
18648;DHT22;9453;50.294;18.644;2023-12-28T06:31:26;5.70;99.90
18648;DHT22;9453;50.294;18.644;2023-12-28T06:33:53;5.70;99.90
18648;DHT22;9453;50.294;18.644;2023-12-28T06:36:20;5.70;99.90
18648;DHT22;9453;50.294;18.644;2023-12-28T06:38:47;5.60;99.90
18648;DHT22;9453;50.294;18.644;2023-12-28T06:41:17;5.70;99.90
18648;DHT22;9453;50.294;18.644;2023-12-28T06:46:38;5.70;99.90
18648;DHT22;9453;50.294;18.644;2023-12-28T06:49:05;5.70;99.90
18648;DHT22;9453;50.294;18.644;2023-12-28T06:51:35;5.70;99.90
18648;DHT22;9453;50.294;18.644;2023-12-28T06:54:02;5.70;99.90
18648;DHT22;9453;50.294;18.644;2023-12-28T06:56:29;5.70;99.90
18648;DHT22;9453;50.294;18.644;2023-12-28T06:58:57;5.70;99.90
18648;DHT22;9453;50.294;18.644;2023-12-28T07:01:23;5.70;99.90
18648;DHT22;9453;50.294;18.644;2023-12-28T07:03:52;5.60;99.90
18648;DHT22;9453;50.294;18.644;2023-12-28T07:06:19;5.70;99.90
18648;DHT22;9453;50.294;18.644;2023-12-28T07:08:46;5.70;99.90
18648;DHT22;9453;50.294;18.644;2023-12-28T07:11:13;5.70;99.90
18648;DHT22;9453;50.294;18.644;2023-12-28T07:13:40;5.70;99.90
18648;DHT22;9453;50.294;18.644;2023-12-28T07:16:07;5.80;99.90
18648;DHT22;9453;50.294;18.644;2023-12-28T07:18:35;5.80;99.90
18648;DHT22;9453;50.294;18.644;2023-12-28T07:21:07;5.80;99.90
18648;DHT22;9453;50.294;18.644;2023-12-28T07:23:35;5.80;99.90
18648;DHT22;9453;50.294;18.644;2023-12-28T07:26:02;5.80;99.90
18648;DHT22;9453;50.294;18.644;2023-12-28T07:28:29;5.80;99.90
18648;DHT22;9453;50.294;18.644;2023-12-28T07:30:56;5.70;99.90
18648;DHT22;9453;50.294;18.644;2023-12-28T07:33:23;6.00;99.90
18648;DHT22;9453;50.294;18.644;2023-12-28T07:35:50;5.90;99.90
18648;DHT22;9453;50.294;18.644;2023-12-28T07:38:19;5.90;99.90
18648;DHT22;9453;50.294;18.644;2023-12-28T07:40:46;6.00;99.90
18648;DHT22;9453;50.294;18.644;2023-12-28T07:43:13;6.00;99.90
18648;DHT22;9453;50.294;18.644;2023-12-28T07:45:40;6.00;99.90
18648;DHT22;9453;50.294;18.644;2023-12-28T07:48:08;5.90;99.90
18648;DHT22;9453;50.294;18.644;2023-12-28T07:50:44;6.10;99.90
18648;DHT22;9453;50.294;18.644;2023-12-28T07:53:12;6.00;99.90
18648;DHT22;9453;50.294;18.644;2023-12-28T07:56:07;6.20;99.90
18648;DHT22;9453;50.294;18.644;2023-12-28T07:58:39;6.20;99.90
18648;DHT22;9453;50.294;18.644;2023-12-28T08:01:10;6.20;99.90
18648;DHT22;9453;50.294;18.644;2023-12-28T08:03:40;6.20;99.90
18648;DHT22;9453;50.294;18.644;2023-12-28T08:06:08;6.20;99.90
18648;DHT22;9453;50.294;18.644;2023-12-28T08:08:38;6.20;99.90
18648;DHT22;9453;50.294;18.644;2023-12-28T08:11:11;6.20;99.90
18648;DHT22;9453;50.294;18.644;2023-12-28T08:13:41;6.20;99.90
18648;DHT22;9453;50.294;18.644;2023-12-28T08:16:08;6.30;99.90
18648;DHT22;9453;50.294;18.644;2023-12-28T08:18:35;6.30;99.90
18648;DHT22;9453;50.294;18.644;2023-12-28T08:21:02;6.30;99.90
18648;DHT22;9453;50.294;18.644;2023-12-28T08:23:29;6.40;99.90
18648;DHT22;9453;50.294;18.644;2023-12-28T08:25:57;6.40;99.90
18648;DHT22;9453;50.294;18.644;2023-12-28T08:28:26;6.50;99.90
18648;DHT22;9453;50.294;18.644;2023-12-28T08:30:55;6.50;99.90
18648;DHT22;9453;50.294;18.644;2023-12-28T08:33:23;6.50;99.90
18648;DHT22;9453;50.294;18.644;2023-12-28T08:35:50;6.60;99.90
18648;DHT22;9453;50.294;18.644;2023-12-28T08:38:17;6.60;99.90
18648;DHT22;9453;50.294;18.644;2023-12-28T08:40:45;6.70;99.90
18648;DHT22;9453;50.294;18.644;2023-12-28T08:43:13;6.70;99.90
18648;DHT22;9453;50.294;18.644;2023-12-28T08:45:41;6.70;99.90
18648;DHT22;9453;50.294;18.644;2023-12-28T08:48:08;6.80;99.90
18648;DHT22;9453;50.294;18.644;2023-12-28T08:50:35;6.90;99.90
18648;DHT22;9453;50.294;18.644;2023-12-28T08:53:03;6.90;99.90
18648;DHT22;9453;50.294;18.644;2023-12-28T08:55:30;6.90;99.90
18648;DHT22;9453;50.294;18.644;2023-12-28T08:57:59;7.00;99.90
18648;DHT22;9453;50.294;18.644;2023-12-28T09:00:26;7.00;99.90
18648;DHT22;9453;50.294;18.644;2023-12-28T09:02:55;7.10;99.90
18648;DHT22;9453;50.294;18.644;2023-12-28T09:05:22;7.20;99.90
18648;DHT22;9453;50.294;18.644;2023-12-28T09:07:49;7.30;99.90
18648;DHT22;9453;50.294;18.644;2023-12-28T09:10:19;7.30;99.90
18648;DHT22;9453;50.294;18.644;2023-12-28T09:12:46;7.40;99.90
18648;DHT22;9453;50.294;18.644;2023-12-28T09:15:14;7.50;99.90
18648;DHT22;9453;50.294;18.644;2023-12-28T09:17:41;7.60;99.90
18648;DHT22;9453;50.294;18.644;2023-12-28T09:20:11;7.70;99.90
18648;DHT22;9453;50.294;18.644;2023-12-28T09:22:38;7.70;99.90
18648;DHT22;9453;50.294;18.644;2023-12-28T09:25:06;7.80;99.90
18648;DHT22;9453;50.294;18.644;2023-12-28T09:27:34;7.90;99.90
18648;DHT22;9453;50.294;18.644;2023-12-28T09:30:02;8.00;99.90
18648;DHT22;9453;50.294;18.644;2023-12-28T09:32:29;8.00;99.90
18648;DHT22;9453;50.294;18.644;2023-12-28T09:34:56;8.10;99.90
18648;DHT22;9453;50.294;18.644;2023-12-28T09:37:25;8.20;99.90
18648;DHT22;9453;50.294;18.644;2023-12-28T09:39:52;8.20;99.90
18648;DHT22;9453;50.294;18.644;2023-12-28T09:42:25;8.30;99.90
18648;DHT22;9453;50.294;18.644;2023-12-28T09:44:54;8.40;99.90
18648;DHT22;9453;50.294;18.644;2023-12-28T09:47:21;8.40;99.90
18648;DHT22;9453;50.294;18.644;2023-12-28T09:49:48;8.50;99.90
18648;DHT22;9453;50.294;18.644;2023-12-28T09:52:16;8.60;99.90
18648;DHT22;9453;50.294;18.644;2023-12-28T09:54:44;8.60;99.90
18648;DHT22;9453;50.294;18.644;2023-12-28T09:57:11;8.70;99.90
18648;DHT22;9453;50.294;18.644;2023-12-28T09:59:40;8.70;99.90
18648;DHT22;9453;50.294;18.644;2023-12-28T10:02:07;8.80;99.90
18648;DHT22;9453;50.294;18.644;2023-12-28T10:04:34;8.80;99.90
18648;DHT22;9453;50.294;18.644;2023-12-28T10:07:03;8.90;99.90
18648;DHT22;9453;50.294;18.644;2023-12-28T10:09:30;8.90;99.90
18648;DHT22;9453;50.294;18.644;2023-12-28T10:11:58;9.00;99.90
18648;DHT22;9453;50.294;18.644;2023-12-28T10:14:26;9.10;99.90
18648;DHT22;9453;50.294;18.644;2023-12-28T10:16:53;9.20;99.90
18648;DHT22;9453;50.294;18.644;2023-12-28T10:19:22;9.20;99.90
18648;DHT22;9453;50.294;18.644;2023-12-28T10:21:49;9.30;99.90
18648;DHT22;9453;50.294;18.644;2023-12-28T10:24:16;9.50;99.90
18648;DHT22;9453;50.294;18.644;2023-12-28T10:26:43;9.70;99.90
18648;DHT22;9453;50.294;18.644;2023-12-28T10:29:12;9.80;99.90
18648;DHT22;9453;50.294;18.644;2023-12-28T10:31:42;10.10;99.90
18648;DHT22;9453;50.294;18.644;2023-12-28T10:34:14;10.30;99.50
18648;DHT22;9453;50.294;18.644;2023-12-28T10:36:42;10.50;99.10
18648;DHT22;9453;50.294;18.644;2023-12-28T10:39:09;10.50;97.60
18648;DHT22;9453;50.294;18.644;2023-12-28T10:41:40;10.60;97.10
18648;DHT22;9453;50.294;18.644;2023-12-28T10:44:11;10.60;96.50
18648;DHT22;9453;50.294;18.644;2023-12-28T10:46:45;10.60;96.00
18648;DHT22;9453;50.294;18.644;2023-12-28T10:49:16;10.50;95.70
18648;DHT22;9453;50.294;18.644;2023-12-28T10:51:44;10.50;95.60
18648;DHT22;9453;50.294;18.644;2023-12-28T10:54:23;10.40;95.40
18648;DHT22;9453;50.294;18.644;2023-12-28T10:56:58;10.40;95.30
18648;DHT22;9453;50.294;18.644;2023-12-28T10:59:35;10.40;95.30
18648;DHT22;9453;50.294;18.644;2023-12-28T11:02:09;10.30;95.20
18648;DHT22;9453;50.294;18.644;2023-12-28T11:04:40;10.30;95.30
18648;DHT22;9453;50.294;18.644;2023-12-28T11:07:10;10.30;95.20
18648;DHT22;9453;50.294;18.644;2023-12-28T11:09:38;10.30;94.80
18648;DHT22;9453;50.294;18.644;2023-12-28T11:12:08;10.40;94.80
18648;DHT22;9453;50.294;18.644;2023-12-28T11:14:39;10.50;94.60
18648;DHT22;9453;50.294;18.644;2023-12-28T11:17:06;10.50;94.20
18648;DHT22;9453;50.294;18.644;2023-12-28T11:19:34;10.50;94.00
18648;DHT22;9453;50.294;18.644;2023-12-28T11:22:03;10.60;93.90
18648;DHT22;9453;50.294;18.644;2023-12-28T11:24:31;10.70;93.60
18648;DHT22;9453;50.294;18.644;2023-12-28T11:26:59;10.60;93.20
18648;DHT22;9453;50.294;18.644;2023-12-28T11:29:29;10.70;92.80
18648;DHT22;9453;50.294;18.644;2023-12-28T11:31:59;10.80;92.90
18648;DHT22;9453;50.294;18.644;2023-12-28T11:34:27;10.90;92.60
18648;DHT22;9453;50.294;18.644;2023-12-28T11:36:56;10.90;92.00
18648;DHT22;9453;50.294;18.644;2023-12-28T11:39:30;11.00;91.80
18648;DHT22;9453;50.294;18.644;2023-12-28T11:42:03;11.20;91.40
18648;DHT22;9453;50.294;18.644;2023-12-28T11:44:37;11.30;91.00
18648;DHT22;9453;50.294;18.644;2023-12-28T11:47:15;11.50;90.30
18648;DHT22;9453;50.294;18.644;2023-12-28T11:49:43;11.60;90.10
18648;DHT22;9453;50.294;18.644;2023-12-28T11:52:22;11.60;89.20
18648;DHT22;9453;50.294;18.644;2023-12-28T11:54:49;11.60;88.30
18648;DHT22;9453;50.294;18.644;2023-12-28T11:57:19;11.60;88.30
18648;DHT22;9453;50.294;18.644;2023-12-28T11:59:47;11.70;89.00
18648;DHT22;9453;50.294;18.644;2023-12-28T12:02:17;11.70;87.50
18648;DHT22;9453;50.294;18.644;2023-12-28T12:04:45;11.90;87.80
18648;DHT22;9453;50.294;18.644;2023-12-28T12:07:12;11.90;87.60
18648;DHT22;9453;50.294;18.644;2023-12-28T12:09:39;12.00;86.40
18648;DHT22;9453;50.294;18.644;2023-12-28T12:12:07;12.00;85.30
18648;DHT22;9453;50.294;18.644;2023-12-28T12:14:34;12.00;85.40
18648;DHT22;9453;50.294;18.644;2023-12-28T12:17:02;11.90;85.50
18648;DHT22;9453;50.294;18.644;2023-12-28T12:19:31;11.80;86.20
18648;DHT22;9453;50.294;18.644;2023-12-28T12:21:58;11.80;86.30
18648;DHT22;9453;50.294;18.644;2023-12-28T12:24:25;11.70;86.40
18648;DHT22;9453;50.294;18.644;2023-12-28T12:26:53;11.70;86.30
18648;DHT22;9453;50.294;18.644;2023-12-28T12:29:20;11.70;86.40
18648;DHT22;9453;50.294;18.644;2023-12-28T12:31:48;11.70;85.00
18648;DHT22;9453;50.294;18.644;2023-12-28T12:34:16;11.70;84.80
18648;DHT22;9453;50.294;18.644;2023-12-28T12:36:44;11.80;84.30
18648;DHT22;9453;50.294;18.644;2023-12-28T12:39:12;11.80;82.50
18648;DHT22;9453;50.294;18.644;2023-12-28T12:41:40;11.80;82.00
18648;DHT22;9453;50.294;18.644;2023-12-28T12:44:08;11.80;80.80
18648;DHT22;9453;50.294;18.644;2023-12-28T12:46:39;11.90;81.00
18648;DHT22;9453;50.294;18.644;2023-12-28T12:49:06;11.80;80.80
18648;DHT22;9453;50.294;18.644;2023-12-28T12:51:32;11.80;81.70
18648;DHT22;9453;50.294;18.644;2023-12-28T12:54:02;11.80;82.00
18648;DHT22;9453;50.294;18.644;2023-12-28T12:56:30;11.80;82.50
18648;DHT22;9453;50.294;18.644;2023-12-28T12:58:57;11.70;82.70
18648;DHT22;9453;50.294;18.644;2023-12-28T13:01:25;11.70;82.80
18648;DHT22;9453;50.294;18.644;2023-12-28T13:03:52;11.60;82.50
18648;DHT22;9453;50.294;18.644;2023-12-28T13:06:19;11.60;82.10
18648;DHT22;9453;50.294;18.644;2023-12-28T13:08:49;11.50;82.60
18648;DHT22;9453;50.294;18.644;2023-12-28T13:11:17;11.50;82.80
18648;DHT22;9453;50.294;18.644;2023-12-28T13:13:49;11.40;83.20
18648;DHT22;9453;50.294;18.644;2023-12-28T13:16:18;11.40;83.40
18648;DHT22;9453;50.294;18.644;2023-12-28T13:18:45;11.30;83.40
18648;DHT22;9453;50.294;18.644;2023-12-28T13:21:12;11.30;83.90
18648;DHT22;9453;50.294;18.644;2023-12-28T13:23:40;11.20;84.20
18648;DHT22;9453;50.294;18.644;2023-12-28T13:26:07;11.10;84.40
18648;DHT22;9453;50.294;18.644;2023-12-28T13:28:35;11.00;85.00
18648;DHT22;9453;50.294;18.644;2023-12-28T13:31:03;11.00;85.40
18648;DHT22;9453;50.294;18.644;2023-12-28T13:33:30;10.90;85.40
18648;DHT22;9453;50.294;18.644;2023-12-28T13:35:57;10.90;85.60
18648;DHT22;9453;50.294;18.644;2023-12-28T13:38:24;10.80;86.10
18648;DHT22;9453;50.294;18.644;2023-12-28T13:40:53;10.70;86.00
18648;DHT22;9453;50.294;18.644;2023-12-28T13:43:21;10.70;86.80
18648;DHT22;9453;50.294;18.644;2023-12-28T13:45:49;10.60;87.10
18648;DHT22;9453;50.294;18.644;2023-12-28T13:48:16;10.60;87.60
18648;DHT22;9453;50.294;18.644;2023-12-28T13:50:43;10.50;87.90
18648;DHT22;9453;50.294;18.644;2023-12-28T13:53:31;10.50;88.20
18648;DHT22;9453;50.294;18.644;2023-12-28T13:56:01;10.50;88.80
18648;DHT22;9453;50.294;18.644;2023-12-28T13:58:28;10.40;88.90
18648;DHT22;9453;50.294;18.644;2023-12-28T14:00:57;10.40;89.30
18648;DHT22;9453;50.294;18.644;2023-12-28T14:03:24;10.40;89.10
18648;DHT22;9453;50.294;18.644;2023-12-28T14:05:51;10.40;89.50
18648;DHT22;9453;50.294;18.644;2023-12-28T14:08:20;10.30;89.40
18648;DHT22;9453;50.294;18.644;2023-12-28T14:10:47;10.30;89.40
18648;DHT22;9453;50.294;18.644;2023-12-28T14:13:14;10.20;89.30
18648;DHT22;9453;50.294;18.644;2023-12-28T14:15:41;10.20;89.60
18648;DHT22;9453;50.294;18.644;2023-12-28T14:18:10;10.20;89.60
18648;DHT22;9453;50.294;18.644;2023-12-28T14:20:37;10.10;89.50
18648;DHT22;9453;50.294;18.644;2023-12-28T14:23:04;10.10;89.60
18648;DHT22;9453;50.294;18.644;2023-12-28T14:25:34;10.00;90.00
18648;DHT22;9453;50.294;18.644;2023-12-28T14:28:05;10.00;90.00
18648;DHT22;9453;50.294;18.644;2023-12-28T14:30:33;9.90;90.70
18648;DHT22;9453;50.294;18.644;2023-12-28T14:33:00;9.90;90.90
18648;DHT22;9453;50.294;18.644;2023-12-28T14:35:29;9.90;90.90
18648;DHT22;9453;50.294;18.644;2023-12-28T14:37:57;9.80;91.00
18648;DHT22;9453;50.294;18.644;2023-12-28T14:40:24;9.80;91.10
18648;DHT22;9453;50.294;18.644;2023-12-28T14:42:53;9.80;91.10
18648;DHT22;9453;50.294;18.644;2023-12-28T14:45:20;9.70;91.20
18648;DHT22;9453;50.294;18.644;2023-12-28T14:47:47;9.70;91.40
18648;DHT22;9453;50.294;18.644;2023-12-28T14:50:16;9.70;91.50
18648;DHT22;9453;50.294;18.644;2023-12-28T14:52:45;9.70;91.70
18648;DHT22;9453;50.294;18.644;2023-12-28T14:55:12;9.60;91.70
18648;DHT22;9453;50.294;18.644;2023-12-28T14:57:40;9.60;91.80
18648;DHT22;9453;50.294;18.644;2023-12-28T15:00:07;9.60;91.90
18648;DHT22;9453;50.294;18.644;2023-12-28T15:02:35;9.60;92.00
18648;DHT22;9453;50.294;18.644;2023-12-28T15:05:03;9.60;92.10
18648;DHT22;9453;50.294;18.644;2023-12-28T15:07:30;9.50;92.20
18648;DHT22;9453;50.294;18.644;2023-12-28T15:10:00;9.50;92.20
18648;DHT22;9453;50.294;18.644;2023-12-28T15:12:28;9.50;91.80
18648;DHT22;9453;50.294;18.644;2023-12-28T15:14:56;9.50;91.60
18648;DHT22;9453;50.294;18.644;2023-12-28T15:17:24;9.50;91.40
18648;DHT22;9453;50.294;18.644;2023-12-28T15:19:51;9.50;91.20
18648;DHT22;9453;50.294;18.644;2023-12-28T15:22:19;9.40;91.00
18648;DHT22;9453;50.294;18.644;2023-12-28T15:24:47;9.50;90.80
18648;DHT22;9453;50.294;18.644;2023-12-28T15:27:15;9.40;90.70
18648;DHT22;9453;50.294;18.644;2023-12-28T15:29:43;9.40;90.60
18648;DHT22;9453;50.294;18.644;2023-12-28T15:32:10;9.40;90.80
18648;DHT22;9453;50.294;18.644;2023-12-28T15:34:37;9.40;90.60
18648;DHT22;9453;50.294;18.644;2023-12-28T15:37:05;9.40;90.60
18648;DHT22;9453;50.294;18.644;2023-12-28T15:39:35;9.40;90.60
18648;DHT22;9453;50.294;18.644;2023-12-28T15:42:03;9.30;90.70
18648;DHT22;9453;50.294;18.644;2023-12-28T15:44:32;9.30;90.60
18648;DHT22;9453;50.294;18.644;2023-12-28T15:46:59;9.30;90.80
18648;DHT22;9453;50.294;18.644;2023-12-28T15:49:26;9.20;90.80
18648;DHT22;9453;50.294;18.644;2023-12-28T15:51:53;9.20;91.00
18648;DHT22;9453;50.294;18.644;2023-12-28T15:54:20;9.20;91.00
18648;DHT22;9453;50.294;18.644;2023-12-28T15:56:47;9.10;91.10
18648;DHT22;9453;50.294;18.644;2023-12-28T15:59:14;9.10;91.20
18648;DHT22;9453;50.294;18.644;2023-12-28T16:01:43;9.10;91.30
18648;DHT22;9453;50.294;18.644;2023-12-28T16:04:10;9.00;91.40
18648;DHT22;9453;50.294;18.644;2023-12-28T16:06:37;9.00;91.60
18648;DHT22;9453;50.294;18.644;2023-12-28T16:09:04;8.90;91.60
18648;DHT22;9453;50.294;18.644;2023-12-28T16:11:32;8.90;91.70
18648;DHT22;9453;50.294;18.644;2023-12-28T16:13:59;8.80;92.20
18648;DHT22;9453;50.294;18.644;2023-12-28T16:16:27;8.80;92.10
18648;DHT22;9453;50.294;18.644;2023-12-28T16:18:57;8.70;92.30
18648;DHT22;9453;50.294;18.644;2023-12-28T16:21:24;8.60;92.20
18648;DHT22;9453;50.294;18.644;2023-12-28T16:23:53;8.60;92.50
18648;DHT22;9453;50.294;18.644;2023-12-28T16:26:20;8.50;92.90
18648;DHT22;9453;50.294;18.644;2023-12-28T16:28:47;8.50;93.20
18648;DHT22;9453;50.294;18.644;2023-12-28T16:31:14;8.40;93.30
18648;DHT22;9453;50.294;18.644;2023-12-28T16:33:41;8.40;93.50
18648;DHT22;9453;50.294;18.644;2023-12-28T16:36:10;8.40;93.60
18648;DHT22;9453;50.294;18.644;2023-12-28T16:42:02;8.30;93.90
18648;DHT22;9453;50.294;18.644;2023-12-28T16:44:49;8.20;94.00
18648;DHT22;9453;50.294;18.644;2023-12-28T16:47:27;8.20;94.10
18648;DHT22;9453;50.294;18.644;2023-12-28T16:50:11;8.10;94.30
18648;DHT22;9453;50.294;18.644;2023-12-28T16:52:54;8.10;94.40
18648;DHT22;9453;50.294;18.644;2023-12-28T16:55:27;8.10;94.90
18648;DHT22;9453;50.294;18.644;2023-12-28T16:57:55;8.00;94.60
18648;DHT22;9453;50.294;18.644;2023-12-28T17:00:22;8.00;94.60
18648;DHT22;9453;50.294;18.644;2023-12-28T17:02:49;8.00;94.70
18648;DHT22;9453;50.294;18.644;2023-12-28T17:05:17;7.90;94.70
18648;DHT22;9453;50.294;18.644;2023-12-28T17:07:46;7.90;94.80
18648;DHT22;9453;50.294;18.644;2023-12-28T17:10:14;7.90;94.80
18648;DHT22;9453;50.294;18.644;2023-12-28T17:12:41;7.80;94.90
18648;DHT22;9453;50.294;18.644;2023-12-28T17:15:09;7.80;94.90
18648;DHT22;9453;50.294;18.644;2023-12-28T17:17:37;7.80;95.10
18648;DHT22;9453;50.294;18.644;2023-12-28T17:20:05;7.70;95.20
18648;DHT22;9453;50.294;18.644;2023-12-28T17:22:37;7.70;95.20
18648;DHT22;9453;50.294;18.644;2023-12-28T17:25:19;7.60;95.30
18648;DHT22;9453;50.294;18.644;2023-12-28T17:27:53;7.60;95.80
18648;DHT22;9453;50.294;18.644;2023-12-28T17:30:23;7.50;95.50
18648;DHT22;9453;50.294;18.644;2023-12-28T17:32:54;7.50;95.50
18648;DHT22;9453;50.294;18.644;2023-12-28T17:35:24;7.40;95.70
18648;DHT22;9453;50.294;18.644;2023-12-28T17:37:52;7.40;95.80
18648;DHT22;9453;50.294;18.644;2023-12-28T17:40:22;7.40;96.00
18648;DHT22;9453;50.294;18.644;2023-12-28T17:42:53;7.30;96.10
18648;DHT22;9453;50.294;18.644;2023-12-28T17:45:26;7.30;96.30
18648;DHT22;9453;50.294;18.644;2023-12-28T17:48:02;7.30;96.30
18648;DHT22;9453;50.294;18.644;2023-12-28T17:50:35;7.30;96.40
18648;DHT22;9453;50.294;18.644;2023-12-28T17:53:03;7.20;96.50
18648;DHT22;9453;50.294;18.644;2023-12-28T17:55:31;7.20;96.60
18648;DHT22;9453;50.294;18.644;2023-12-28T17:57:58;7.10;96.60
18648;DHT22;9453;50.294;18.644;2023-12-28T18:00:27;7.10;96.80
18648;DHT22;9453;50.294;18.644;2023-12-28T18:02:54;7.10;96.90
18648;DHT22;9453;50.294;18.644;2023-12-28T18:05:21;7.00;97.00
18648;DHT22;9453;50.294;18.644;2023-12-28T18:07:48;7.00;97.20
18648;DHT22;9453;50.294;18.644;2023-12-28T18:10:15;7.00;97.40
18648;DHT22;9453;50.294;18.644;2023-12-28T18:12:44;7.00;97.60
18648;DHT22;9453;50.294;18.644;2023-12-28T18:15:12;7.00;97.70
18648;DHT22;9453;50.294;18.644;2023-12-28T18:17:41;6.90;97.80
18648;DHT22;9453;50.294;18.644;2023-12-28T18:20:09;6.90;98.00
18648;DHT22;9453;50.294;18.644;2023-12-28T18:22:36;6.90;98.10
18648;DHT22;9453;50.294;18.644;2023-12-28T18:25:05;6.90;98.20
18648;DHT22;9453;50.294;18.644;2023-12-28T18:27:33;6.90;98.20
18648;DHT22;9453;50.294;18.644;2023-12-28T18:30:02;6.90;98.30
18648;DHT22;9453;50.294;18.644;2023-12-28T18:32:30;6.90;98.50
18648;DHT22;9453;50.294;18.644;2023-12-28T18:34:57;6.90;98.50
18648;DHT22;9453;50.294;18.644;2023-12-28T18:37:24;6.90;98.60
18648;DHT22;9453;50.294;18.644;2023-12-28T18:39:54;6.80;98.70
18648;DHT22;9453;50.294;18.644;2023-12-28T18:42:29;6.80;98.80
18648;DHT22;9453;50.294;18.644;2023-12-28T18:44:57;6.80;98.80
18648;DHT22;9453;50.294;18.644;2023-12-28T18:47:25;6.80;98.90
18648;DHT22;9453;50.294;18.644;2023-12-28T18:49:52;6.80;99.10
18648;DHT22;9453;50.294;18.644;2023-12-28T18:52:21;6.80;99.10
18648;DHT22;9453;50.294;18.644;2023-12-28T18:54:48;6.80;99.30
18648;DHT22;9453;50.294;18.644;2023-12-28T18:57:15;6.80;99.60
18648;DHT22;9453;50.294;18.644;2023-12-28T18:59:42;6.80;99.60
18648;DHT22;9453;50.294;18.644;2023-12-28T19:02:12;6.90;99.60
18648;DHT22;9453;50.294;18.644;2023-12-28T19:04:40;7.00;99.70
18648;DHT22;9453;50.294;18.644;2023-12-28T19:07:07;7.10;99.80
18648;DHT22;9453;50.294;18.644;2023-12-28T19:09:36;7.10;99.50
18648;DHT22;9453;50.294;18.644;2023-12-28T19:12:05;7.20;99.60
18648;DHT22;9453;50.294;18.644;2023-12-28T19:14:33;7.30;99.50
18648;DHT22;9453;50.294;18.644;2023-12-28T19:17:00;7.30;99.30
18648;DHT22;9453;50.294;18.644;2023-12-28T19:19:27;7.40;99.20
18648;DHT22;9453;50.294;18.644;2023-12-28T19:21:57;7.40;99.10
18648;DHT22;9453;50.294;18.644;2023-12-28T19:24:24;7.40;99.10
18648;DHT22;9453;50.294;18.644;2023-12-28T19:26:53;7.50;99.10
18648;DHT22;9453;50.294;18.644;2023-12-28T19:29:19;7.50;99.10
18648;DHT22;9453;50.294;18.644;2023-12-28T19:31:47;7.60;99.10
18648;DHT22;9453;50.294;18.644;2023-12-28T19:34:14;7.60;99.10
18648;DHT22;9453;50.294;18.644;2023-12-28T19:36:41;7.60;99.10
18648;DHT22;9453;50.294;18.644;2023-12-28T19:39:10;7.70;99.20
18648;DHT22;9453;50.294;18.644;2023-12-28T19:41:45;7.60;99.10
18648;DHT22;9453;50.294;18.644;2023-12-28T19:44:12;7.70;99.20
18648;DHT22;9453;50.294;18.644;2023-12-28T19:46:39;7.60;99.10
18648;DHT22;9453;50.294;18.644;2023-12-28T19:49:06;7.60;99.10
18648;DHT22;9453;50.294;18.644;2023-12-28T19:51:33;7.60;99.10
18648;DHT22;9453;50.294;18.644;2023-12-28T19:54:00;7.70;99.20
18648;DHT22;9453;50.294;18.644;2023-12-28T19:56:29;7.60;99.10
18648;DHT22;9453;50.294;18.644;2023-12-28T19:58:56;7.60;99.20
18648;DHT22;9453;50.294;18.644;2023-12-28T20:01:23;7.60;99.20
18648;DHT22;9453;50.294;18.644;2023-12-28T20:03:50;7.60;99.10
18648;DHT22;9453;50.294;18.644;2023-12-28T20:06:17;7.60;99.20
18648;DHT22;9453;50.294;18.644;2023-12-28T20:08:44;7.60;99.20
18648;DHT22;9453;50.294;18.644;2023-12-28T20:11:12;7.60;99.20
18648;DHT22;9453;50.294;18.644;2023-12-28T20:13:40;7.60;99.30
18648;DHT22;9453;50.294;18.644;2023-12-28T20:16:07;7.60;99.40
18648;DHT22;9453;50.294;18.644;2023-12-28T20:18:38;7.60;99.50
18648;DHT22;9453;50.294;18.644;2023-12-28T20:21:05;7.60;99.60
18648;DHT22;9453;50.294;18.644;2023-12-28T20:23:32;7.60;99.80
18648;DHT22;9453;50.294;18.644;2023-12-28T20:25:59;7.50;99.80
18648;DHT22;9453;50.294;18.644;2023-12-28T20:28:26;7.50;99.90
18648;DHT22;9453;50.294;18.644;2023-12-28T20:30:55;7.60;99.90
18648;DHT22;9453;50.294;18.644;2023-12-28T20:33:22;7.60;99.90
18648;DHT22;9453;50.294;18.644;2023-12-28T20:35:51;7.60;99.90
18648;DHT22;9453;50.294;18.644;2023-12-28T20:38:18;7.60;99.90
18648;DHT22;9453;50.294;18.644;2023-12-28T20:40:45;7.60;99.90
18648;DHT22;9453;50.294;18.644;2023-12-28T20:43:14;7.60;99.90
18648;DHT22;9453;50.294;18.644;2023-12-28T20:45:43;7.60;99.90
18648;DHT22;9453;50.294;18.644;2023-12-28T20:48:11;7.50;99.90
18648;DHT22;9453;50.294;18.644;2023-12-28T20:50:38;7.50;99.90
18648;DHT22;9453;50.294;18.644;2023-12-28T20:53:06;7.50;99.90
18648;DHT22;9453;50.294;18.644;2023-12-28T20:55:34;7.50;99.90
18648;DHT22;9453;50.294;18.644;2023-12-28T20:58:03;7.50;99.90